createdAt,value
2018-04-19T00:00:39.323Z,11.40
2018-04-19T00:03:08.736Z,11.40
2018-04-19T00:05:38.045Z,11.20
2018-04-19T00:08:07.359Z,11.00
2018-04-19T00:10:36.627Z,10.90
2018-04-19T00:13:05.915Z,10.60
2018-04-19T00:15:35.590Z,10.50
2018-04-19T00:18:05.304Z,10.50
2018-04-19T00:20:35.354Z,10.50
2018-04-19T00:23:05.070Z,10.60
2018-04-19T00:25:34.854Z,10.80
2018-04-19T00:28:04.230Z,10.90
2018-04-19T00:30:33.683Z,10.80
2018-04-19T00:33:03.442Z,10.60
2018-04-19T00:35:33.043Z,10.70
2018-04-19T00:38:02.433Z,10.80
2018-04-19T00:40:32.154Z,10.70
2018-04-19T00:43:01.786Z,10.70
2018-04-19T00:45:31.749Z,10.80
2018-04-19T00:48:01.427Z,11.10
2018-04-19T00:50:31.103Z,11.10
2018-04-19T00:53:05.269Z,11.00
2018-04-19T00:55:34.656Z,11.10
2018-04-19T00:58:04.063Z,11.00
2018-04-19T01:00:33.664Z,10.80
2018-04-19T01:03:03.090Z,10.60
2018-04-19T01:05:33.703Z,10.40
2018-04-19T01:08:03.409Z,10.30
2018-04-19T01:10:32.815Z,10.50
2018-04-19T01:13:02.255Z,10.50
2018-04-19T01:15:31.962Z,10.70
2018-04-19T01:18:02.108Z,10.80
2018-04-19T01:20:31.803Z,11.20
2018-04-19T01:23:01.368Z,11.30
2018-04-19T01:25:31.406Z,11.30
2018-04-19T01:28:01.093Z,11.30
2018-04-19T01:30:30.720Z,11.40
2018-04-19T01:33:01.118Z,11.40
2018-04-19T01:35:35.151Z,11.30
2018-04-19T01:38:05.462Z,10.90
2018-04-19T01:40:35.408Z,10.90
2018-04-19T01:43:04.900Z,10.90
2018-04-19T01:45:34.308Z,10.70
2018-04-19T01:48:04.187Z,10.70
2018-04-19T01:50:34.211Z,10.80
2018-04-19T01:53:03.649Z,10.80
2018-04-19T01:55:34.047Z,10.90
2018-04-19T01:58:03.742Z,11.00
2018-04-19T02:00:33.312Z,11.00
2018-04-19T02:03:03.747Z,11.00
2018-04-19T02:05:33.440Z,11.00
2018-04-19T02:08:02.816Z,11.00
2018-04-19T02:10:33.081Z,10.90
2018-04-19T02:13:02.568Z,10.60
2018-04-19T02:15:32.124Z,10.70
2018-04-19T02:18:02.201Z,10.60
2018-04-19T02:20:31.387Z,10.70
2018-04-19T02:23:00.713Z,10.70
2018-04-19T02:25:35.408Z,10.70
2018-04-19T02:28:04.886Z,10.80
2018-04-19T02:30:34.543Z,10.80
2018-04-19T02:33:04.261Z,10.90
2018-04-19T02:35:33.801Z,10.90
2018-04-19T02:38:03.205Z,10.90
2018-04-19T02:40:33.226Z,10.80
2018-04-19T02:43:05.132Z,10.80
2018-04-19T02:45:35.528Z,10.90
2018-04-19T02:48:07.381Z,10.90
2018-04-19T02:50:37.519Z,10.90
2018-04-19T02:53:08.106Z,10.70
2018-04-19T02:55:38.544Z,10.70
2018-04-19T02:58:08.729Z,10.80
2018-04-19T03:00:38.687Z,10.80
2018-04-19T03:03:08.995Z,10.80
2018-04-19T03:05:38.429Z,10.90
2018-04-19T03:08:08.306Z,10.80
2018-04-19T03:10:37.584Z,10.80
2018-04-19T03:13:07.462Z,10.70
2018-04-19T03:15:37.365Z,10.70
2018-04-19T03:18:06.533Z,10.60
2018-04-19T03:20:35.610Z,10.70
2018-04-19T03:23:04.959Z,10.70
2018-04-19T03:25:34.093Z,10.70
2018-04-19T03:28:04.469Z,10.60
2018-04-19T03:30:34.292Z,10.60
2018-04-19T03:33:04.368Z,10.50
2018-04-19T03:35:33.849Z,10.50
2018-04-19T03:38:04.231Z,10.50
2018-04-19T03:40:34.052Z,10.40
2018-04-19T03:43:03.870Z,10.20
2018-04-19T03:45:35.118Z,10.40
2018-04-19T03:48:04.277Z,10.40
2018-04-19T03:50:34.449Z,10.60
2018-04-19T03:53:04.249Z,10.50
2018-04-19T03:55:33.433Z,10.60
2018-04-19T03:58:03.294Z,10.60
2018-04-19T04:00:41.572Z,10.60
2018-04-19T04:03:11.142Z,10.60
2018-04-19T04:05:40.649Z,10.50
2018-04-19T04:08:10.741Z,10.40
2018-04-19T04:10:40.142Z,10.40
2018-04-19T04:13:09.509Z,10.40
2018-04-19T04:15:38.932Z,10.40
2018-04-19T04:18:13.501Z,10.40
2018-04-19T04:21:06.571Z,10.40
2018-04-19T04:23:53.500Z,10.30
2018-04-19T04:26:23.338Z,10.30
2018-04-19T04:28:57.830Z,10.30
2018-04-19T04:31:27.013Z,10.30
2018-04-19T04:33:56.871Z,10.40
2018-04-19T04:36:26.186Z,10.40
2018-04-19T04:38:56.662Z,10.40
2018-04-19T04:41:27.616Z,10.30
2018-04-19T04:44:04.792Z,10.40
2018-04-19T04:46:35.289Z,10.40
2018-04-19T04:49:05.053Z,10.40
2018-04-19T04:51:38.906Z,10.40
2018-04-19T04:54:14.654Z,10.40
2018-04-19T04:56:44.689Z,10.40
2018-04-19T04:59:15.998Z,10.40
2018-04-19T05:01:46.098Z,10.50
2018-04-19T05:04:15.677Z,10.60
2018-04-19T05:06:45.807Z,10.70
2018-04-19T05:09:15.918Z,10.90
2018-04-19T05:11:45.869Z,10.80
2018-04-19T05:14:16.489Z,11.00
2018-04-19T05:16:46.988Z,10.90
2018-04-19T05:19:16.936Z,11.00
2018-04-19T05:21:48.903Z,11.10
2018-04-19T05:24:38.956Z,11.70
2018-04-19T05:27:09.159Z,11.70
2018-04-19T05:29:38.558Z,12.00
2018-04-19T05:32:08.971Z,12.20
2018-04-19T05:34:40.025Z,12.80
2018-04-19T05:37:11.358Z,13.60
2018-04-19T05:39:40.804Z,14.70
2018-04-19T05:42:17.077Z,15.40
2018-04-19T05:44:51.703Z,15.10
2018-04-19T05:50:01.031Z,14.70
2018-04-19T05:52:31.778Z,14.50
2018-04-19T05:55:02.133Z,14.50
2018-04-19T05:57:31.752Z,14.50
2018-04-19T06:00:01.976Z,15.10
2018-04-19T06:02:31.364Z,15.40
2018-04-19T06:05:00.577Z,15.50
2018-04-19T06:07:40.965Z,15.30
2018-04-19T06:10:37.389Z,15.30
2018-04-19T06:13:08.192Z,15.10
2018-04-19T06:15:38.366Z,15.20
2018-04-19T06:18:07.662Z,15.20
2018-04-19T06:20:39.159Z,15.70
2018-04-19T06:23:18.342Z,15.90
2018-04-19T06:25:48.212Z,17.20
2018-04-19T06:28:19.956Z,17.80
2018-04-19T06:30:51.565Z,22.40
2018-04-19T06:33:42.964Z,23.90
2018-04-19T06:36:14.887Z,23.80
2018-04-19T06:38:58.179Z,25.30
2018-04-19T06:41:30.014Z,25.50
2018-04-19T06:44:00.977Z,22.30
2018-04-19T06:46:53.322Z,22.30
2018-04-19T06:49:23.916Z,22.70
2018-04-19T06:52:18.376Z,22.70
2018-04-19T06:57:51.685Z,25.50
2018-04-19T07:00:21.353Z,25.40
2018-04-19T07:02:51.483Z,25.50
2018-04-19T08:35:59.414Z,32.90
2018-04-19T08:38:31.462Z,28.30
2018-04-19T08:41:01.724Z,25.80
2018-04-19T08:43:40.733Z,21.20
2018-04-19T08:46:13.299Z,20.70
2018-04-19T08:51:47.885Z,21.60
2018-04-19T08:57:13.145Z,24.60
2018-04-19T08:59:42.463Z,22.30
2018-04-19T09:03:42.995Z,22.50
2018-04-19T09:06:20.043Z,24.00
2018-04-19T09:09:09.240Z,20.60
2018-04-19T09:11:40.205Z,23.00
2018-04-19T09:14:28.641Z,22.90
2018-04-19T09:16:59.947Z,21.20
2018-04-19T09:19:30.080Z,20.40
2018-04-19T09:22:03.255Z,20.30
2018-04-19T09:24:43.730Z,21.90
2018-04-19T09:27:17.487Z,23.20
2018-04-19T09:29:55.015Z,24.20
2018-04-19T09:35:11.910Z,23.20
2018-04-19T09:38:19.506Z,23.20
2018-04-19T09:41:05.523Z,23.10
2018-04-19T09:43:38.937Z,22.90
2018-04-19T09:46:29.956Z,23.40
2018-04-19T09:48:59.579Z,22.50
2018-04-19T09:51:30.190Z,21.90
2018-04-19T09:54:02.475Z,22.30
2018-04-19T09:56:40.153Z,22.30
2018-04-19T10:02:07.335Z,22.70
2018-04-19T10:05:11.329Z,22.00
2018-04-19T10:07:57.285Z,22.40
2018-04-19T10:10:28.390Z,22.10
2018-04-19T10:13:00.623Z,22.00
2018-04-19T10:15:30.471Z,22.20
2018-04-19T10:18:00.675Z,21.90
2018-04-19T10:20:32.201Z,22.70
2018-04-19T10:23:02.659Z,22.70
2018-04-19T10:25:35.146Z,22.30
2018-04-19T10:28:18.936Z,22.30
2018-04-19T10:30:57.853Z,24.40
2018-04-19T10:33:29.461Z,24.40
2018-04-19T10:36:01.705Z,23.10
2018-04-19T10:38:32.832Z,23.00
2018-04-19T10:41:09.275Z,23.00
2018-04-19T10:44:02.295Z,23.00
2018-04-19T10:46:33.232Z,24.60
2018-04-19T10:49:15.741Z,24.60
2018-04-19T10:51:46.206Z,25.00
2018-04-19T10:54:17.658Z,24.40
2018-04-19T10:56:49.734Z,24.60
2018-04-19T10:59:21.094Z,24.30
2018-04-19T11:01:50.315Z,23.40
2018-04-19T11:04:24.783Z,24.40
2018-04-19T11:23:47.224Z,25.80
2018-04-19T11:26:21.009Z,24.60
2018-04-19T11:28:53.972Z,25.40
2018-04-19T11:31:26.434Z,24.20
2018-04-19T11:33:56.236Z,24.20
2018-04-19T11:36:28.236Z,26.50
2018-04-19T11:39:04.546Z,26.50
2018-04-19T11:41:38.645Z,25.40
2018-04-19T11:44:18.668Z,24.00
2018-04-19T11:46:48.155Z,24.00
2018-04-19T11:49:17.540Z,25.50
2018-04-19T11:51:48.403Z,26.70
2018-04-19T11:54:19.983Z,26.70
2018-04-19T11:56:53.172Z,26.50
2018-04-19T11:59:25.725Z,25.40
2018-04-19T12:02:04.561Z,25.70
2018-04-19T12:04:40.425Z,26.00
2018-04-19T12:17:03.680Z,25.00
2018-04-19T12:19:33.897Z,24.30
2018-04-19T12:22:15.268Z,25.10
2018-04-19T12:24:49.976Z,25.10
2018-04-19T12:31:01.229Z,25.10
2018-04-19T12:33:35.272Z,25.20
2018-04-19T12:36:17.670Z,25.20
2018-04-19T12:38:55.427Z,25.20
2018-04-19T12:42:04.247Z,25.00
2018-04-19T12:44:43.513Z,24.70
2018-04-19T12:47:15.513Z,24.50
2018-04-19T12:51:03.783Z,24.70
2018-04-19T12:56:38.860Z,25.10
2018-04-19T12:59:19.432Z,25.30
2018-04-19T13:02:01.753Z,25.10
2018-04-19T13:04:37.338Z,25.10
2018-04-19T13:07:12.381Z,24.90
2018-04-19T13:09:49.592Z,24.90
2018-04-19T13:12:51.759Z,25.20
2018-04-19T13:15:24.149Z,25.10
2018-04-19T13:17:57.645Z,25.50
2018-04-19T13:21:19.991Z,25.20
2018-04-19T13:27:06.117Z,25.30
2018-04-19T13:29:38.401Z,25.20
2018-04-19T13:35:55.309Z,25.30
2018-04-19T13:42:04.494Z,25.10
2018-04-19T13:44:36.058Z,25.30
2018-04-19T13:47:06.384Z,24.90
2018-04-19T13:49:39.358Z,24.80
2018-04-19T13:52:12.853Z,25.00
2018-04-19T13:54:43.444Z,24.70
2018-04-19T13:58:22.684Z,25.00
2018-04-19T14:01:15.385Z,25.20
2018-04-19T14:07:04.410Z,25.00
2018-04-19T14:12:46.578Z,24.90
2018-04-19T14:18:43.119Z,24.80
2018-04-19T14:21:29.115Z,24.80
2018-04-19T14:24:03.547Z,24.80
2018-04-19T14:27:46.854Z,25.00
2018-04-19T14:35:10.004Z,24.70
2018-04-19T14:37:43.378Z,24.60
2018-04-19T14:40:15.257Z,24.80
2018-04-19T14:42:45.551Z,24.70
2018-04-19T14:45:15.155Z,24.70
2018-04-19T14:47:44.509Z,25.00
2018-04-19T14:50:20.068Z,24.80
2018-04-19T14:52:52.194Z,24.80
2018-04-19T14:55:23.527Z,24.80
2018-04-19T14:57:54.647Z,24.70
2018-04-19T15:00:26.320Z,24.70
2018-04-19T15:06:27.163Z,24.60
2018-04-19T15:08:59.351Z,24.60
2018-04-19T15:11:32.040Z,24.50
2018-04-19T15:14:13.214Z,24.50
2018-04-19T15:16:44.331Z,24.70
2018-04-19T15:19:18.550Z,24.60
2018-04-19T15:21:49.439Z,24.30
2018-04-19T15:24:36.063Z,24.30
2018-04-19T15:27:22.775Z,24.10
2018-04-19T15:30:10.945Z,24.00
2018-04-19T15:32:45.971Z,24.10
2018-04-19T15:35:35.842Z,24.10
2018-04-19T15:41:30.312Z,24.00
2018-04-19T15:44:02.922Z,24.00
2018-04-19T15:46:51.835Z,23.70
2018-04-19T15:49:58.040Z,23.80
2018-04-19T15:52:28.818Z,23.70
2018-04-19T15:54:59.992Z,23.70
2018-04-19T15:57:29.282Z,23.70
2018-04-19T15:59:59.488Z,23.70
2018-04-19T16:02:30.057Z,23.70
2018-04-19T16:05:02.080Z,23.60
2018-04-19T16:08:08.008Z,23.60
2018-04-19T16:11:09.645Z,23.50
2018-04-19T16:13:55.664Z,23.60
2018-04-19T16:16:25.397Z,23.40
2018-04-19T16:18:55.459Z,23.40
2018-04-19T16:21:25.580Z,23.30
2018-04-19T16:27:28.453Z,23.20
2018-04-19T16:30:44.951Z,23.10
2018-04-19T16:36:39.033Z,23.00
2018-04-19T16:39:11.833Z,23.10
2018-04-19T16:41:42.058Z,23.10
2018-04-19T16:44:11.519Z,22.90
2018-04-19T16:46:43.098Z,22.80
2018-04-19T16:49:19.316Z,22.80
2018-04-19T16:51:50.901Z,22.70
2018-04-19T16:54:20.494Z,22.80
2018-04-19T16:56:49.704Z,22.70
2018-04-19T16:59:34.139Z,22.70
2018-04-19T17:02:04.868Z,22.60
2018-04-19T17:04:55.386Z,22.60
2018-04-19T17:07:24.812Z,22.60
2018-04-19T17:09:55.835Z,22.40
2018-04-19T17:12:27.819Z,22.40
2018-04-19T17:15:01.393Z,22.30
2018-04-19T17:17:36.268Z,22.30
2018-04-19T17:20:08.198Z,22.30
2018-04-19T17:22:39.094Z,22.20
2018-04-19T17:25:09.001Z,22.00
2018-04-19T17:27:43.074Z,22.00
2018-04-19T17:30:22.133Z,21.80
2018-04-19T17:33:10.542Z,21.70
2018-04-19T17:35:51.869Z,21.60
2018-04-19T17:38:24.435Z,21.60
2018-04-19T17:40:54.163Z,21.30
2018-04-19T17:43:24.551Z,21.10
2018-04-19T17:45:55.266Z,21.00
2018-04-19T17:48:30.856Z,20.90
2018-04-19T17:51:02.353Z,20.70
2018-04-19T17:53:32.077Z,20.70
2018-04-19T17:56:02.025Z,20.60
2018-04-19T17:58:32.160Z,20.50
2018-04-19T18:01:01.817Z,20.50
2018-04-19T18:03:34.358Z,20.40
2018-04-19T18:06:04.515Z,20.20
2018-04-19T18:08:39.593Z,20.20
2018-04-19T18:11:12.839Z,20.20
2018-04-19T18:13:42.161Z,20.00
2018-04-19T18:16:13.327Z,19.90
2018-04-19T18:18:43.446Z,19.80
2018-04-19T18:21:21.550Z,19.40
2018-04-19T18:27:18.662Z,19.40
2018-04-19T18:29:48.586Z,19.40
2018-04-19T18:32:18.129Z,19.30
2018-04-19T18:34:57.013Z,19.20
2018-04-19T18:37:27.283Z,18.70
2018-04-19T18:39:57.202Z,18.70
2018-04-19T18:42:29.627Z,18.60
2018-04-19T18:45:02.938Z,18.40
2018-04-19T18:47:32.247Z,18.30
2018-04-19T18:50:02.726Z,18.10
2018-04-19T18:52:33.688Z,17.80
2018-04-19T18:55:03.222Z,17.80
2018-04-19T18:57:42.911Z,17.70
2018-04-19T19:00:12.977Z,17.70
2018-04-19T19:02:45.123Z,17.70
2018-04-19T19:05:15.142Z,17.80
2018-04-19T19:08:01.243Z,17.70
2018-04-19T19:10:31.457Z,17.70
2018-04-19T19:13:00.769Z,17.70
2018-04-19T19:15:34.395Z,17.70
2018-04-19T19:20:14.961Z,17.50
2018-04-19T19:22:44.208Z,17.40
2018-04-19T19:25:16.246Z,17.00
2018-04-19T19:27:45.592Z,17.00
2018-04-19T19:33:04.761Z,16.90
2018-04-19T19:35:34.029Z,16.90
2018-04-19T19:38:03.339Z,16.60
2018-04-19T19:40:33.251Z,16.50
2018-04-19T19:43:05.897Z,16.40
2018-04-19T19:45:36.338Z,16.40
2018-04-19T19:48:05.889Z,16.50
2018-04-19T19:50:37.111Z,16.50
2018-04-19T19:53:07.279Z,16.50
2018-04-19T19:55:37.818Z,16.60
2018-04-19T19:58:07.654Z,16.60
2018-04-19T20:00:38.177Z,16.50
2018-04-19T20:03:08.956Z,16.40
2018-04-19T20:05:39.085Z,16.50
2018-04-19T20:08:08.310Z,16.40
2018-04-19T20:10:38.475Z,16.30
2018-04-19T20:13:08.197Z,16.30
2018-04-19T20:15:38.097Z,16.20
2018-04-19T20:18:07.282Z,16.10
2018-04-19T20:20:39.437Z,16.00
2018-04-19T20:23:08.953Z,15.80
2018-04-19T20:25:38.839Z,15.40
2018-04-19T20:28:08.018Z,15.40
2018-04-19T20:33:15.733Z,15.40
2018-04-19T20:35:45.466Z,15.40
2018-04-19T20:38:14.980Z,15.30
2018-04-19T20:40:44.176Z,15.30
2018-04-19T20:43:14.198Z,15.10
2018-04-19T20:45:43.478Z,14.90
2018-04-19T20:48:12.844Z,15.00
2018-04-19T20:50:43.078Z,15.10
2018-04-19T20:53:13.241Z,15.10
2018-04-19T20:55:42.890Z,15.00
2018-04-19T20:58:12.073Z,15.10
2018-04-19T21:00:41.449Z,15.10
2018-04-19T21:03:10.840Z,15.00
2018-04-19T21:05:40.323Z,15.10
2018-04-19T21:08:09.645Z,15.00
2018-04-19T21:10:39.136Z,15.00
2018-04-19T21:13:09.869Z,14.90
2018-04-19T21:15:39.220Z,14.90
2018-04-19T21:18:09.421Z,14.90
2018-04-19T21:20:40.408Z,14.80
2018-04-19T21:23:09.910Z,14.60
2018-04-19T21:25:39.514Z,14.40
2018-04-19T21:28:08.862Z,14.30
2018-04-19T21:30:38.775Z,14.30
2018-04-19T21:33:11.993Z,14.20
2018-04-19T21:35:42.431Z,13.80
2018-04-19T21:38:11.583Z,13.80
2018-04-19T21:40:40.962Z,13.60
2018-04-19T21:43:10.257Z,13.60
2018-04-19T21:45:39.675Z,13.40
2018-04-19T21:48:09.188Z,13.40
2018-04-19T21:50:38.808Z,13.20
2018-04-19T21:53:08.531Z,13.40
2018-04-19T21:55:39.302Z,13.40
2018-04-19T21:58:09.029Z,13.40
2018-04-19T22:00:42.199Z,13.30
2018-04-19T22:03:14.488Z,13.20
2018-04-19T22:05:43.946Z,13.30
2018-04-19T22:08:14.099Z,13.40
2018-04-19T22:10:44.450Z,13.40
2018-04-19T22:13:13.868Z,13.20
2018-04-19T22:15:43.404Z,13.20
2018-04-19T22:18:12.843Z,13.20
2018-04-19T22:20:41.956Z,13.30
2018-04-19T22:23:11.334Z,13.40
2018-04-19T22:25:41.161Z,13.50
2018-04-19T22:28:10.376Z,13.60
2018-04-19T22:30:40.076Z,13.60
2018-04-19T22:33:10.112Z,13.60
2018-04-19T22:35:39.651Z,13.60
2018-04-19T22:38:08.990Z,13.60
2018-04-19T22:40:38.139Z,13.50
2018-04-19T22:43:07.505Z,13.50
2018-04-19T22:45:37.724Z,13.60
2018-04-19T22:48:07.294Z,13.60
2018-04-19T22:50:36.736Z,13.50
2018-04-19T22:53:06.113Z,13.50
2018-04-19T22:55:36.008Z,13.50
2018-04-19T22:58:05.095Z,13.50
2018-04-19T23:00:34.661Z,13.50
2018-04-19T23:03:04.775Z,13.30
2018-04-19T23:05:34.167Z,13.30
2018-04-19T23:08:03.977Z,12.90
2018-04-19T23:10:34.253Z,12.70
2018-04-19T23:13:03.557Z,12.50
2018-04-19T23:15:33.398Z,12.40
2018-04-19T23:18:02.814Z,12.50
2018-04-19T23:20:32.701Z,12.60
2018-04-19T23:23:02.477Z,12.70
2018-04-19T23:25:31.869Z,12.80
2018-04-19T23:28:01.799Z,13.00
2018-04-19T23:30:31.520Z,13.10
2018-04-19T23:33:01.439Z,13.20
2018-04-19T23:35:31.150Z,13.10
2018-04-19T23:38:00.924Z,12.90
2018-04-19T23:40:36.563Z,12.70
2018-04-19T23:43:05.979Z,12.50
2018-04-19T23:45:36.525Z,12.30
2018-04-19T23:48:06.216Z,12.20
2018-04-19T23:50:36.092Z,12.10
2018-04-19T23:53:05.514Z,12.10
2018-04-19T23:55:34.849Z,11.70
2018-04-19T23:58:04.131Z,11.80
